Latest Weather Observations for Williamtown

IDN60801

Issued at 11:34 pm EDT Friday 27 February 2015 (issued every 30 minutes, with the page automatically refreshed every 10 minutes)

About weather observations | Map of weather stations | Latest weather observations for NSW | Other Formats
Station Details ID: 061078 Name: WILLIAMTOWN RAAF Lat: -32.79 Lon: 151.84 Height: 9.0 m
Data from the previous 72 hours. | See also: Recent months at Williamtown
Date/Time
EDT
Temp
°C
App
Temp
°C
Dew
Point
Rel
Hum
%
Delta-T
°C
Wind Press
QNH
hPa
Press
MSL
hPa
Rain
since 9 am
mm
Dir
 
Spd
km/h
Gust
km/h
Spd
kts
Gust
kts
27/11:30pm 18.7 21.3 17.6 93 0.7 CALM 0 0 0 0 1011.0 - 0.2
27/11:00pm 19.6 22.4 18.0 90 1.0 CALM 0 0 0 0 1011.2 - 0.2
27/10:30pm 19.6 22.4 18.0 90 1.0 CALM 0 0 0 0 1011.2 - 0.2
27/10:00pm 19.8 22.6 18.0 89 1.1 CALM 0 0 0 0 1011.2 - 0.2
27/09:30pm 20.4 23.3 18.1 87 1.4 CALM 0 0 0 0 1010.8 - 0.2
27/09:00pm 21.6 23.3 18.6 83 1.9 ENE 7 9 4 5 1010.6 1010.6 0.2
27/08:30pm 22.2 23.5 18.5 79 2.3 ENE 9 13 5 7 1010.3 - 0.2
27/08:00pm 22.8 23.1 18.7 77 2.6 E 15 19 8 10 1009.7 - 0.2
27/07:30pm 23.4 23.9 19.2 77 2.7 E 15 19 8 10 1009.5 - 0.2
27/07:00pm 23.9 24.7 19.9 78 2.6 E 15 22 8 12 1009.3 - 0.2
27/06:30pm 24.3 24.7 19.8 76 2.9 ESE 17 26 9 14 1009.3 - 0.2
27/06:00pm 25.2 24.9 19.5 70 3.7 SE 20 26 11 14 1009.0 1009.0 0.2
27/05:30pm 25.2 24.7 19.1 69 3.9 SE 20 28 11 15 1008.9 - 0.2
27/05:00pm 25.4 25.0 19.0 67 4.1 ESE 19 26 10 14 1008.8 - 0.2
27/04:30pm 26.2 25.3 19.0 64 4.6 SE 22 30 12 16 1008.5 - 0.2
27/04:00pm 26.2 25.2 18.9 64 4.7 SSE 22 32 12 17 1008.7 - 0.2
27/03:30pm 26.2 25.1 18.7 63 4.8 SE 22 28 12 15 1008.7 - 0.2
27/03:00pm 26.5 25.7 18.0 59 5.4 SE 19 24 10 13 1008.9 1008.9 0.2
27/02:30pm 26.5 25.8 18.3 60 5.2 SSE 19 26 10 14 1009.0 - 0.2
27/02:00pm 26.2 26.2 18.2 61 5.1 SE 15 19 8 10 1009.2 - 0.2
27/01:30pm 27.2 26.6 18.4 58 5.6 SE 19 26 10 14 1009.4 - 0.2
27/01:00pm 26.5 26.9 18.9 63 4.9 SE 15 24 8 13 1009.7 - 0.2
27/12:30pm 25.6 25.8 18.5 65 4.5 SSE 15 22 8 12 1010.1 - 0.2
27/12:00pm 25.6 25.6 18.0 63 4.8 SE 15 20 8 11 1010.2 1010.2 0.2
27/11:30am 26.1 26.3 18.6 63 4.8 ESE 15 22 8 12 1010.6 - 0.2
27/11:00am 26.5 26.8 17.8 58 5.5 ESE 13 22 7 12 1010.7 - 0.2
27/10:30am 24.4 25.7 19.4 73 3.2 S 11 15 6 8 1010.7 - 0.0
27/10:00am 24.3 25.1 19.0 72 3.4 SSE 13 20 7 11 1010.6 - 0.0
27/09:30am 24.2 26.5 20.7 81 2.3 WSW 9 13 5 7 1010.5 - 0.0
27/09:00am 23.0 26.0 21.2 89 1.2 SW 7 11 4 6 1010.2 1010.2 0.0
27/08:30am 21.4 23.9 20.3 93 0.7 W 7 9 4 5 1010.3 - 0.0
27/08:00am 20.7 22.6 19.8 95 0.6 WNW 9 13 5 7 1009.9 - 0.0
27/07:30am 20.1 22.4 19.5 96 0.4 W 6 11 3 6 1009.6 - 0.0
27/07:00am 19.7 21.7 19.2 97 0.3 W 7 9 4 5 1009.3 - 0.0
27/06:30am 19.8 21.5 19.3 97 0.3 WNW 9 11 5 6 1008.8 - 0.0
27/06:00am 20.2 21.6 19.6 96 0.4 WSW 11 11 6 6 1008.4 1008.4 0.0
27/05:30am 20.6 21.7 19.7 95 0.6 SW 13 15 7 8 1008.2 - 0.0
27/05:00am 20.8 22.0 19.9 95 0.6 SW 13 17 7 9 1008.1 - 0.0
27/04:38am 20.5 21.6 19.7 95 0.5 SSW 13 17 7 9 1007.9 - 0.0
27/04:30am 20.5 21.6 19.7 95 0.5 SSW 13 17 7 9 1007.9 - 0.0
27/04:15am 20.7 22.7 19.9 95 0.5 S 9 13 5 7 1007.9 - 0.0
27/04:00am 20.7 22.2 19.8 95 0.6 S 11 15 6 8 1007.8 - 0.0
27/03:30am 21.0 21.8 19.9 93 0.7 S 15 19 8 10 1007.7 - 0.0
27/03:18am 21.1 22.3 20.0 93 0.7 S 13 15 7 8 1007.6 - 0.0
27/03:00am 21.3 22.4 20.5 95 0.5 S 15 17 8 9 1007.6 1007.6 0.0
27/02:30am 20.7 24.5 20.1 96 0.4 CALM 0 0 0 0 1007.6 - 0.0
27/02:09am 20.3 23.9 19.8 97 0.3 CALM 0 0 0 0 1007.8 - 0.0
27/02:00am 20.2 23.8 19.7 97 0.3 CALM 0 0 0 0 1008.0 - 0.0
27/01:30am 20.4 24.1 19.9 97 0.3 CALM 0 0 0 0 1008.2 - 0.0
27/01:00am 20.3 22.6 19.8 97 0.3 SSW 7 9 4 5 1008.6 - 0.0
27/12:30am 20.5 21.7 20.0 97 0.3 W 13 15 7 8 1008.7 - 0.0
27/12:00am 20.5 23.3 19.7 95 0.5 S 4 7 2 4 1008.0 1008.0 0.0
 
Date/Time
EDT
Temp
°C
App
Temp
°C
Dew
Point
Rel
Hum
%
Delta-T
°C
Wind Press
QNH
hPa
Press
MSL
hPa
Rain
since 9 am
mm
Dir
 
Spd
km/h
Gust
km/h
Spd
kts
Gust
kts
26/11:30pm 20.9 23.3 20.1 95 0.5 SE 7 9 4 5 1008.1 - 0.0
26/11:00pm 21.7 25.6 20.3 92 0.9 CALM 0 0 0 0 1008.4 - 0.0
26/10:30pm 21.9 25.1 20.5 92 0.9 NNW 4 7 2 4 1008.8 - 0.0
26/10:00pm 22.1 24.8 20.6 91 1.0 W 7 9 4 5 1009.2 - 0.0
26/09:30pm 22.0 23.2 20.0 88 1.3 SW 13 13 7 7 1009.4 - 0.0
26/09:00pm 22.5 26.0 19.5 83 1.9 CALM 0 0 0 0 1008.8 1008.8 0.0
26/08:30pm 22.7 24.8 19.4 81 2.1 E 7 9 4 5 1007.9 - 0.0
26/08:00pm 22.9 23.9 19.5 81 2.2 E 13 17 7 9 1007.4 - 0.0
26/07:30pm 23.1 24.6 19.8 82 2.1 E 11 13 6 7 1007.5 - 0.0
26/07:00pm 23.3 25.4 20.1 82 2.1 E 9 13 5 7 1007.6 - 0.0
26/06:30pm 23.3 23.6 19.7 80 2.3 E 17 22 9 12 1006.7 - 0.0
26/06:00pm 23.3 22.7 18.9 76 2.8 E 20 28 11 15 1006.0 1006.0 0.0
26/05:30pm 24.0 23.6 19.3 75 3.0 ESE 20 28 11 15 1006.4 - 0.0
26/05:00pm 24.6 24.2 19.3 72 3.4 SE 20 26 11 14 1006.6 - 0.0
26/04:30pm 25.1 24.8 19.5 71 3.6 ESE 20 26 11 14 1006.6 - 0.0
26/04:00pm 25.1 25.1 19.0 69 3.9 SE 17 20 9 11 1006.9 - 0.0
26/03:30pm 24.8 25.4 19.5 72 3.4 SSE 15 20 8 11 1007.1 - 0.0
26/03:00pm 25.9 26.6 19.6 68 4.1 SSE 15 20 8 11 1007.4 1007.4 0.0
26/02:30pm 25.1 25.7 19.5 71 3.6 SSE 15 19 8 10 1007.9 - 0.0
26/02:00pm 25.6 26.3 19.7 70 3.8 SE 15 24 8 13 1008.4 - 0.0
26/01:30pm 24.8 25.4 19.4 72 3.5 SSE 15 22 8 12 1008.7 - 0.0
26/01:00pm 24.3 24.9 19.5 74 3.1 SSE 15 19 8 10 1008.9 - 0.0
26/12:30pm 24.2 24.4 19.4 74 3.1 SE 17 20 9 11 1009.2 - 0.0
26/12:00pm 24.8 25.9 19.7 73 3.3 SSE 13 20 7 11 1009.6 1009.6 0.0
26/11:30am 24.4 25.8 18.7 70 3.6 SSW 9 13 5 7 1010.0 - 0.0
26/11:00am 25.1 27.1 19.2 70 3.8 SW 7 11 4 6 1010.3 - 0.0
26/10:30am 23.9 25.7 19.5 76 2.8 SW 9 13 5 7 1010.5 - 0.0
26/10:17am 23.4 24.7 19.3 78 2.6 W 11 15 6 8 1010.6 - 0.0
26/10:00am 23.6 25.5 19.7 79 2.5 W 9 15 5 8 1010.7 - 0.0
26/09:30am 22.2 23.8 19.9 87 1.5 W 11 13 6 7 1010.7 - 0.0
26/09:00am 22.1 23.6 19.8 87 1.5 SW 11 13 6 7 1010.4 1010.4 0.2
26/08:30am 21.3 22.8 19.7 91 1.0 SW 11 13 6 7 1010.3 - 0.2
26/08:19am 21.2 22.4 20.0 93 0.8 SW 13 17 7 9 1010.3 - 0.2
26/08:00am 20.7 21.9 19.9 95 0.5 WSW 13 17 7 9 1010.2 - 0.2
26/07:30am 19.9 20.9 19.4 97 0.3 W 13 15 7 8 1010.2 - 0.2
26/07:00am 19.5 21.0 19.0 97 0.3 WNW 9 11 5 6 1009.9 - 0.2
26/06:53am 19.3 20.8 19.0 98 0.2 NW 9 11 5 6 1009.9 - 0.2
26/06:30am 19.5 20.8 19.2 98 0.2 WNW 11 13 6 7 1009.8 - 0.2
26/06:00am 19.7 21.8 19.4 98 0.2 W 7 11 4 6 1009.7 1009.7 0.2
26/05:54am 19.8 21.6 19.5 98 0.2 W 9 11 5 6 1009.7 - 0.2
26/05:30am 20.0 21.9 19.7 98 0.2 WNW 9 11 5 6 1009.7 - 0.2
26/05:12am 19.8 21.2 19.5 98 0.2 NW 11 15 6 8 1009.8 - 0.2
26/05:00am 19.9 21.3 19.6 98 0.2 WNW 11 11 6 6 1009.8 - 0.2
26/04:30am 20.1 23.2 19.6 97 0.3 NW 2 9 1 5 1009.6 - 0.2
26/04:00am 20.0 21.9 19.7 98 0.2 NW 9 11 5 6 1009.8 - 0.2
26/03:30am 20.1 22.3 19.6 97 0.3 WNW 7 9 4 5 1010.1 - 0.2
26/03:00am 20.2 23.8 19.7 97 0.3 CALM 0 0 0 0 1010.5 1010.5 0.2
26/02:30am 20.5 24.2 19.9 96 0.4 CALM 0 0 0 0 1010.6 - 0.2
26/02:00am 20.4 24.0 19.8 96 0.4 CALM 0 0 0 0 1011.0 - 0.2
26/01:30am 20.3 23.9 19.7 96 0.4 CALM 0 0 0 0 1011.4 - 0.2
26/01:00am 20.6 23.6 20.0 96 0.4 SSE 4 11 2 6 1011.8 - 0.2
26/12:30am 20.0 23.4 19.4 96 0.4 CALM 0 0 0 0 1012.2 - 0.0
26/12:00am 19.7 22.9 18.9 95 0.5 CALM 0 0 0 0 1012.5 1012.5 0.0
 
Date/Time
EDT
Temp
°C
App
Temp
°C
Dew
Point
Rel
Hum
%
Delta-T
°C
Wind Press
QNH
hPa
Press
MSL
hPa
Rain
since 9 am
mm
Dir
 
Spd
km/h
Gust
km/h
Spd
kts
Gust
kts
25/11:30pm 20.4 23.8 19.3 93 0.7 CALM 0 0 0 0 1012.5 - 0.0
25/11:00pm 21.2 24.3 19.6 90 1.0 ESE 2 7 1 4 1013.0 - 0.0
25/10:30pm 21.3 22.7 19.6 90 1.1 SE 11 13 6 7 1013.0 - 0.0
25/10:00pm 21.2 23.7 19.9 92 0.8 SSW 6 9 3 5 1013.2 - 0.0
25/09:30pm 21.5 23.2 20.1 92 0.9 S 11 13 6 7 1013.2 - 0.0
25/09:00pm 21.6 23.7 20.2 92 0.9 S 9 11 5 6 1013.2 1013.2 0.0
25/08:30pm 21.5 23.1 19.9 91 1.0 SSW 11 13 6 7 1013.3 - 0.0
25/08:00pm 21.9 23.9 19.9 88 1.3 S 9 11 5 6 1013.2 - 0.0
25/07:30pm 22.0 22.8 19.8 87 1.4 S 15 20 8 11 1013.3 - 0.0
25/07:00pm 21.8 21.8 19.8 88 1.3 SSE 19 22 10 12 1012.8 - 0.0
25/06:30pm 22.1 21.2 19.8 87 1.5 SSE 24 32 13 17 1012.9 - 0.0
25/06:00pm 22.6 21.9 20.3 87 1.5 SSE 24 35 13 19 1012.8 1012.8 0.0
25/05:52pm 22.8 23.0 20.6 87 1.4 SSE 20 28 11 15 1012.8 - 0.0
25/05:40pm 23.4 23.3 20.0 81 2.2 SSE 20 26 11 14 1012.6 - 0.0
25/05:30pm 23.7 23.6 19.5 77 2.7 SSE 19 24 10 13 1012.5 - 0.0
25/05:00pm 25.0 24.4 18.9 69 3.9 SSE 20 28 11 15 1012.2 - 0.0
25/04:30pm 25.4 24.6 18.1 64 4.6 SE 19 28 10 15 1012.3 - 0.0
25/04:00pm 26.0 25.1 18.3 62 4.9 SSE 20 26 11 14 1012.5 - 0.0
25/03:30pm 25.9 24.6 18.1 62 4.9 SE 22 28 12 15 1012.9 - 0.0
25/03:00pm 25.8 26.0 18.6 64 4.6 ESE 15 22 8 12 1013.2 1013.2 0.0
25/02:30pm 25.7 25.7 19.0 66 4.3 SE 17 24 9 13 1013.4 - 0.0
25/02:00pm 25.7 25.4 19.1 67 4.2 SSE 19 26 10 14 1013.8 - 0.0
25/01:30pm 25.0 24.4 18.9 69 3.9 SE 20 26 11 14 1014.2 - 0.0
25/01:00pm 24.7 24.7 18.9 70 3.7 S 17 22 9 12 1014.5 - 0.0
25/12:30pm 25.7 25.3 19.3 67 4.1 S 20 28 11 15 1015.0 - 0.0
25/12:00pm 25.0 24.2 19.2 70 3.7 S 22 30 12 16 1015.2 1015.2 0.0
25/11:30am 24.6 24.0 18.9 70 3.6 S 20 28 11 15 1015.3 - 0.0
25/11:00am 24.4 24.4 18.9 71 3.5 SSW 17 26 9 14 1015.3 - 0.0
25/10:30am 23.9 23.3 18.9 73 3.2 SSW 20 28 11 15 1015.2 - 0.0
25/10:16am 23.7 23.6 18.8 74 3.1 S 17 26 9 14 1015.3 - 0.0
25/10:00am 23.0 23.4 19.1 78 2.5 S 15 26 8 14 1015.3 - 0.0
25/09:40am 23.0 23.8 19.1 78 2.5 SSW 13 17 7 9 1015.2 - 0.0
25/09:30am 22.8 23.1 18.7 77 2.6 SSW 15 19 8 10 1015.1 - 0.0
25/09:21am 22.8 23.4 18.7 77 2.6 SSW 13 19 7 10 1015.1 - 0.0
25/09:00am 23.0 23.0 18.9 78 2.6 SSW 17 24 9 13 1015.1 1015.1 0.0
25/08:30am 21.7 22.5 19.0 84 1.7 SW 13 17 7 9 1015.0 - 0.0
25/08:00am 21.3 22.1 19.1 87 1.4 SSW 13 19 7 10 1014.7 - 0.0
25/07:30am 20.1 21.6 18.8 92 0.8 W 9 11 5 6 1014.4 - 0.0
25/07:00am 19.6 21.0 18.6 94 0.6 W 9 11 5 6 1014.2 - 0.0
25/06:49am 19.6 21.3 18.6 94 0.6 W 7 11 4 6 1014.0 - 0.0
25/06:30am 19.7 21.1 18.7 94 0.6 W 9 11 5 6 1014.0 - 0.0
25/06:00am 20.2 21.0 19.1 93 0.7 SW 13 22 7 12 1013.7 1013.7 0.0
25/05:46am 20.3 20.3 19.0 92 0.8 SW 17 24 9 13 1013.6 - 0.0
25/05:30am 20.3 21.1 19.0 92 0.8 SW 13 17 7 9 1013.4 - 0.0
25/05:00am 20.3 20.3 18.9 92 0.9 SSW 17 26 9 14 1013.3 - 0.0
25/04:30am 20.2 21.0 19.1 93 0.7 SW 13 19 7 10 1013.3 - 0.0
25/04:00am 20.5 20.1 18.9 90 1.0 SSW 19 26 10 14 1013.6 - 0.0
25/03:30am 20.7 21.1 19.1 90 1.0 SSW 15 19 8 10 1013.8 - 0.0
25/03:00am 20.5 20.9 19.1 92 0.9 SSW 15 19 8 10 1014.0 1014.0 0.0
25/02:30am 20.8 20.5 19.5 92 0.8 SSW 20 30 11 16 1014.2 - 0.0
25/02:00am 21.3 21.7 19.9 92 0.9 SSW 17 24 9 13 1014.5 - 0.0
25/01:30am 21.2 22.9 20.1 93 0.7 SW 11 15 6 8 1014.8 - 0.0
25/01:00am 21.1 22.7 20.0 93 0.7 SSW 11 13 6 7 1015.1 - 0.0
25/12:30am 21.1 24.7 19.7 92 0.9 CALM 0 0 0 0 1015.4 - 0.0
25/12:00am 21.0 24.4 19.4 90 1.0 CALM 0 0 0 0 1015.5 1015.5 0.0

Other Formats:

Comma delimited format used in spreadsheet applications
http://www.bom.gov.au/fwo/IDN60801/IDN60801.94776.axf

JavaScript Object Notation format (JSON) in row-major order
http://www.bom.gov.au/fwo/IDN60801/IDN60801.94776.json